createdAt,value
2018-08-07T00:01:55.596Z,9.50
2018-08-07T00:04:23.221Z,10.30
2018-08-07T00:06:51.600Z,10.83
2018-08-07T00:09:19.745Z,10.30
2018-08-07T00:11:47.208Z,9.90
2018-08-07T00:14:14.810Z,10.70
2018-08-07T00:16:42.292Z,10.13
2018-08-07T00:19:09.902Z,10.20
2018-08-07T00:21:37.526Z,10.57
2018-08-07T00:24:05.166Z,10.20
2018-08-07T00:26:32.728Z,10.97
2018-08-07T00:29:00.376Z,12.00
2018-08-07T00:31:27.980Z,11.00
2018-08-07T00:33:55.606Z,10.43
2018-08-07T00:36:23.202Z,11.23
2018-08-07T00:38:51.630Z,10.80
2018-08-07T00:41:19.777Z,11.60
2018-08-07T00:43:47.233Z,10.60
2018-08-07T00:46:14.869Z,11.27
2018-08-07T00:48:42.419Z,11.63
2018-08-07T00:51:10.029Z,11.40
2018-08-07T00:53:37.578Z,11.60
2018-08-07T00:56:05.385Z,11.73
2018-08-07T00:58:32.926Z,11.07
2018-08-07T01:01:00.507Z,12.47
2018-08-07T01:03:28.087Z,12.00
2018-08-07T01:05:55.667Z,12.97
2018-08-07T01:08:23.224Z,11.57
2018-08-07T01:10:51.456Z,11.37
2018-08-07T01:13:19.720Z,12.23
2018-08-07T01:15:47.289Z,12.87
2018-08-07T01:18:14.861Z,11.70
2018-08-07T01:20:42.477Z,11.47
2018-08-07T01:23:10.167Z,12.53
2018-08-07T01:25:37.744Z,11.77
2018-08-07T01:28:05.396Z,13.20
2018-08-07T01:30:32.959Z,12.40
2018-08-07T01:33:00.634Z,12.80
2018-08-07T01:35:28.823Z,13.47
2018-08-07T01:37:56.450Z,11.60
2018-08-07T01:40:24.032Z,12.20
2018-08-07T01:42:51.632Z,13.00
2018-08-07T01:45:19.884Z,13.60
2018-08-07T01:47:47.504Z,15.13
2018-08-07T01:50:15.573Z,14.70
2018-08-07T01:52:43.183Z,14.27
2018-08-07T01:55:20.942Z,11.80
2018-08-07T01:57:48.390Z,12.70
2018-08-07T02:00:16.034Z,13.90
2018-08-07T02:02:43.716Z,13.03
2018-08-07T02:05:12.147Z,13.13
2018-08-07T02:07:40.422Z,12.77
2018-08-07T02:10:16.618Z,12.20
2018-08-07T02:12:44.184Z,13.30
2018-08-07T02:15:12.600Z,12.87
2018-08-07T02:17:40.220Z,12.90
2018-08-07T02:20:09.928Z,12.43
2018-08-07T02:22:37.732Z,13.00
2018-08-07T02:25:06.534Z,14.23
2018-08-07T02:27:34.152Z,15.23
2018-08-07T02:30:01.714Z,12.77
2018-08-07T02:32:29.277Z,13.20
2018-08-07T02:34:56.822Z,14.63
2018-08-07T02:37:24.360Z,13.80
2018-08-07T02:39:51.916Z,14.20
2018-08-07T02:42:19.707Z,14.10
2018-08-07T02:44:47.286Z,13.00
2018-08-07T02:47:14.875Z,14.37
2018-08-07T02:49:42.453Z,14.60
2018-08-07T02:52:09.904Z,13.70
2018-08-07T02:54:37.511Z,14.60
2018-08-07T02:57:05.121Z,13.30
2018-08-07T02:59:32.632Z,12.70
2018-08-07T03:02:00.153Z,13.57
2018-08-07T03:04:27.696Z,14.30
2018-08-07T03:06:55.301Z,14.23
2018-08-07T03:09:22.810Z,14.97
2018-08-07T03:11:51.073Z,14.73
2018-08-07T03:14:18.635Z,15.33
2018-08-07T03:16:46.323Z,13.33
2018-08-07T03:19:13.915Z,14.40
2018-08-07T03:21:41.489Z,14.00
2018-08-07T03:24:09.052Z,13.97
2018-08-07T03:26:36.646Z,14.43
2018-08-07T03:29:04.260Z,14.60
2018-08-07T03:31:31.838Z,14.07
2018-08-07T03:33:59.361Z,13.40
2018-08-07T03:36:26.909Z,13.73
2018-08-07T03:38:54.453Z,14.87
2018-08-07T03:41:21.986Z,13.40
2018-08-07T03:43:49.780Z,12.90
2018-08-07T03:46:17.335Z,14.73
2018-08-07T03:48:44.881Z,14.90
2018-08-07T03:51:12.455Z,13.83
2018-08-07T03:53:40.003Z,12.73
2018-08-07T03:56:07.601Z,13.97
2018-08-07T03:58:35.174Z,12.70
2018-08-07T04:01:02.754Z,12.57
2018-08-07T04:03:30.333Z,12.27
2018-08-07T04:05:57.884Z,12.80
2018-08-07T04:08:25.528Z,12.20
2018-08-07T04:10:53.082Z,12.70
2018-08-07T04:13:20.938Z,12.73
2018-08-07T04:15:48.486Z,11.90
2018-08-07T04:18:16.083Z,12.63
2018-08-07T04:20:43.660Z,12.47
2018-08-07T04:23:11.217Z,11.20
2018-08-07T04:25:38.762Z,12.47
2018-08-07T04:28:06.752Z,12.93
2018-08-07T04:30:34.308Z,11.80
2018-08-07T04:33:01.884Z,12.30
2018-08-07T04:35:29.646Z,12.23
2018-08-07T04:37:57.190Z,13.30
2018-08-07T04:40:24.744Z,14.63
2018-08-07T04:42:52.409Z,14.30
2018-08-07T04:45:20.283Z,14.73
2018-08-07T04:47:48.057Z,13.20
2018-08-07T04:50:16.241Z,12.80
2018-08-07T04:52:44.658Z,14.93
2018-08-07T04:55:12.276Z,13.97
2018-08-07T04:57:39.802Z,14.40
2018-08-07T05:00:11.328Z,14.57
2018-08-07T05:02:38.889Z,14.33
2018-08-07T05:05:06.762Z,12.80
2018-08-07T05:07:34.241Z,13.23
2018-08-07T05:10:01.921Z,16.30
2018-08-07T05:12:29.426Z,16.03
2018-08-07T05:14:57.017Z,13.63
2018-08-07T05:17:24.656Z,14.87
2018-08-07T05:19:52.194Z,13.87
2018-08-07T05:22:20.553Z,14.93
2018-08-07T05:24:48.125Z,14.67
2018-08-07T05:27:15.669Z,14.50
2018-08-07T05:29:43.327Z,15.10
2018-08-07T05:32:10.909Z,15.97
2018-08-07T05:34:38.500Z,14.90
2018-08-07T05:37:06.089Z,14.97
2018-08-07T05:39:33.697Z,14.20
2018-08-07T05:42:01.252Z,12.33
2018-08-07T05:44:28.855Z,14.00
2018-08-07T05:46:56.417Z,14.37
2018-08-07T05:49:23.913Z,13.97
2018-08-07T05:51:51.503Z,14.00
2018-08-07T05:54:19.649Z,14.57
2018-08-07T05:56:47.197Z,13.80
2018-08-07T05:59:14.809Z,15.20
2018-08-07T06:01:42.474Z,14.70
2018-08-07T06:04:10.177Z,14.40
2018-08-07T06:06:37.761Z,13.93
2018-08-07T06:09:06.518Z,13.87
2018-08-07T06:11:34.169Z,13.10
2018-08-07T06:14:01.751Z,12.17
2018-08-07T06:16:29.413Z,12.10
2018-08-07T06:18:57.017Z,11.80
2018-08-07T06:21:24.534Z,9.80
2018-08-07T06:23:52.185Z,8.17
2018-08-07T06:26:20.367Z,6.30
2018-08-07T06:28:47.947Z,6.80
2018-08-07T06:31:15.520Z,6.57
2018-08-07T06:33:42.961Z,7.43
2018-08-07T06:36:10.553Z,6.80
2018-08-07T06:38:38.172Z,6.70
2018-08-07T06:41:05.932Z,7.17
2018-08-07T06:43:33.489Z,7.00
2018-08-07T06:46:01.093Z,6.90
2018-08-07T06:48:28.697Z,6.70
2018-08-07T06:50:56.191Z,6.53
2018-08-07T06:53:23.738Z,7.20
2018-08-07T06:55:51.980Z,7.27
2018-08-07T06:58:20.164Z,6.33
2018-08-07T07:00:48.138Z,6.50
2018-08-07T07:03:15.778Z,6.43
2018-08-07T07:05:43.447Z,5.30
2018-08-07T07:08:11.063Z,5.40
2018-08-07T07:10:38.617Z,4.93
2018-08-07T07:13:06.199Z,4.77
2018-08-07T07:15:33.783Z,4.87
2018-08-07T07:18:01.396Z,5.47
2018-08-07T07:20:28.951Z,6.00
2018-08-07T07:22:56.517Z,5.63
2018-08-07T07:25:24.145Z,5.30
2018-08-07T07:27:51.753Z,5.83
2018-08-07T07:30:20.761Z,6.10
2018-08-07T07:32:50.556Z,5.20
2018-08-07T07:35:18.474Z,6.13
2018-08-07T07:37:46.436Z,5.67
2018-08-07T07:40:14.171Z,4.80
2018-08-07T07:42:41.859Z,5.17
2018-08-07T07:45:12.578Z,4.70
2018-08-07T07:47:40.597Z,5.27
2018-08-07T07:50:11.563Z,5.20
2018-08-07T07:52:39.644Z,5.27
2018-08-07T07:55:08.215Z,5.13
2018-08-07T07:57:36.138Z,4.80
2018-08-07T08:00:06.242Z,5.23
2018-08-07T08:02:33.891Z,4.77
2018-08-07T08:05:01.825Z,4.80
2018-08-07T08:07:29.383Z,5.50
2018-08-07T08:09:56.921Z,4.93
2018-08-07T08:12:24.625Z,4.80
2018-08-07T08:14:52.302Z,4.67
2018-08-07T08:17:20.701Z,4.87
2018-08-07T08:19:48.295Z,4.77
2018-08-07T08:22:15.945Z,4.43
2018-08-07T08:24:43.562Z,4.63
2018-08-07T08:27:11.471Z,4.70
2018-08-07T08:29:39.155Z,4.87
2018-08-07T08:32:06.742Z,5.50
2018-08-07T08:34:34.369Z,5.47
2018-08-07T08:37:02.037Z,4.90
2018-08-07T08:39:29.492Z,5.40
2018-08-07T08:41:57.112Z,5.10
2018-08-07T08:44:24.670Z,4.47
2018-08-07T08:46:52.306Z,5.03
2018-08-07T08:49:20.192Z,5.27
2018-08-07T08:51:47.819Z,5.17
2018-08-07T08:54:15.415Z,5.20
2018-08-07T08:56:43.035Z,5.10
2018-08-07T08:59:10.884Z,5.37
2018-08-07T09:01:38.545Z,5.20
2018-08-07T09:04:06.311Z,5.50
2018-08-07T09:06:33.935Z,5.23
2018-08-07T09:09:01.546Z,5.17
2018-08-07T09:11:29.192Z,5.50
2018-08-07T09:13:56.788Z,5.67
2018-08-07T09:16:24.352Z,5.10
2018-08-07T09:18:51.970Z,5.20
2018-08-07T09:21:20.358Z,5.40
2018-08-07T09:23:48.037Z,5.03
2018-08-07T09:26:15.521Z,4.60
2018-08-07T09:28:43.164Z,5.30
2018-08-07T09:31:10.786Z,5.03
2018-08-07T09:33:38.459Z,4.93
2018-08-07T09:36:06.215Z,5.37
2018-08-07T09:38:33.810Z,5.93
2018-08-07T09:41:01.504Z,5.00
2018-08-07T09:43:29.095Z,5.80
2018-08-07T09:45:56.714Z,6.90
2018-08-07T09:48:24.262Z,6.37
2018-08-07T09:50:51.835Z,6.30
2018-08-07T09:53:19.925Z,6.63
2018-08-07T09:55:47.419Z,6.60
2018-08-07T09:58:15.080Z,6.90
2018-08-07T10:00:48.330Z,7.30
2018-08-07T10:03:17.066Z,6.80
2018-08-07T10:05:44.737Z,7.27
2018-08-07T10:08:12.387Z,7.90
2018-08-07T10:10:40.013Z,8.00
2018-08-07T10:13:07.743Z,7.90
2018-08-07T10:15:35.582Z,7.30
2018-08-07T10:18:03.117Z,7.37
2018-08-07T10:20:30.845Z,6.70
2018-08-07T10:22:58.567Z,8.70
2018-08-07T10:25:26.067Z,7.10
2018-08-07T10:27:53.619Z,7.07
2018-08-07T10:30:23.065Z,7.50
2018-08-07T10:32:51.661Z,7.10
2018-08-07T10:35:19.306Z,7.10
2018-08-07T10:37:47.174Z,6.50
2018-08-07T10:40:17.733Z,7.13
2018-08-07T10:42:45.343Z,6.80
2018-08-07T10:45:15.158Z,7.07
2018-08-07T10:47:42.731Z,7.20
2018-08-07T10:50:13.084Z,7.03
2018-08-07T10:52:40.712Z,7.63
2018-08-07T10:55:08.847Z,6.80
2018-08-07T10:57:37.091Z,7.20
2018-08-07T11:00:09.413Z,6.67
2018-08-07T11:02:36.992Z,7.07
2018-08-07T11:05:05.281Z,6.83
2018-08-07T11:07:32.834Z,7.07
2018-08-07T11:10:00.457Z,6.10
2018-08-07T11:12:28.126Z,6.93
2018-08-07T11:14:55.674Z,7.10
2018-08-07T11:17:23.268Z,5.43
2018-08-07T11:19:51.554Z,5.03
2018-08-07T11:22:19.845Z,5.90
2018-08-07T11:24:47.550Z,5.90
2018-08-07T11:27:15.298Z,5.57
2018-08-07T11:29:42.918Z,6.60
2018-08-07T11:32:11.782Z,5.70
2018-08-07T11:34:39.388Z,6.50
2018-08-07T11:37:07.078Z,5.97
2018-08-07T11:39:34.623Z,6.13
2018-08-07T11:42:02.269Z,5.70
2018-08-07T11:44:29.776Z,5.30
2018-08-07T11:46:57.408Z,6.17
2018-08-07T11:49:25.027Z,5.77
2018-08-07T11:51:52.674Z,5.47
2018-08-07T11:54:21.020Z,5.70
2018-08-07T11:56:48.571Z,6.00
2018-08-07T11:59:18.655Z,5.87
2018-08-07T12:01:46.593Z,5.70
2018-08-07T12:04:14.265Z,5.13
2018-08-07T12:06:42.091Z,6.17
2018-08-07T12:09:10.433Z,5.67
2018-08-07T12:11:38.213Z,5.27
2018-08-07T12:14:06.123Z,5.50
2018-08-07T12:16:33.756Z,5.43
2018-08-07T12:19:01.599Z,6.57
2018-08-07T12:21:29.477Z,5.90
2018-08-07T12:23:57.224Z,5.57
2018-08-07T12:26:24.777Z,6.07
2018-08-07T12:28:52.328Z,5.47
2018-08-07T12:31:20.131Z,5.50
2018-08-07T12:33:47.697Z,5.13
2018-08-07T12:36:15.182Z,6.10
2018-08-07T12:38:42.736Z,7.07
2018-08-07T12:41:10.304Z,6.43
2018-08-07T12:43:37.937Z,6.73
2018-08-07T12:46:05.885Z,7.00
2018-08-07T12:48:33.498Z,6.20
2018-08-07T12:51:00.992Z,6.10
2018-08-07T12:53:28.624Z,6.90
2018-08-07T12:55:56.255Z,5.60
2018-08-07T12:58:23.771Z,6.90
2018-08-07T13:00:51.376Z,6.40
2018-08-07T13:03:19.248Z,6.63
2018-08-07T13:05:46.922Z,6.53
2018-08-07T13:08:14.520Z,6.80
2018-08-07T13:10:42.077Z,6.03
2018-08-07T13:13:09.712Z,6.40
2018-08-07T13:15:37.483Z,6.67
2018-08-07T13:18:05.441Z,6.47
2018-08-07T13:20:33.026Z,7.20
2018-08-07T13:23:00.480Z,6.87
2018-08-07T13:25:28.160Z,6.17
2018-08-07T13:27:55.829Z,6.50
2018-08-07T13:30:25.812Z,5.73
2018-08-07T13:32:53.484Z,6.00
2018-08-07T13:35:21.410Z,6.37
2018-08-07T13:37:49.921Z,6.10
2018-08-07T13:40:18.731Z,6.53
2018-08-07T13:42:46.385Z,6.80
2018-08-07T13:45:17.631Z,6.13
2018-08-07T13:47:45.327Z,5.57
2018-08-07T13:50:16.496Z,6.13
2018-08-07T13:52:44.970Z,5.60
2018-08-07T13:55:13.527Z,5.63
2018-08-07T13:57:41.108Z,6.20
2018-08-07T14:00:16.674Z,6.03
2018-08-07T14:02:45.035Z,5.30
2018-08-07T14:05:13.019Z,6.13
2018-08-07T14:07:40.646Z,5.93
2018-08-07T14:10:09.826Z,6.60
2018-08-07T14:12:37.332Z,6.13
2018-08-07T14:15:05.149Z,5.63
2018-08-07T14:17:32.867Z,5.50
2018-08-07T14:20:00.400Z,6.17
2018-08-07T14:22:28.147Z,5.90
2018-08-07T14:24:55.767Z,5.10
2018-08-07T14:27:23.491Z,6.13
2018-08-07T14:29:51.351Z,5.20
2018-08-07T14:32:19.650Z,6.13
2018-08-07T14:34:47.229Z,5.87
2018-08-07T14:37:14.862Z,5.63
2018-08-07T14:39:42.384Z,5.97
2018-08-07T14:42:10.036Z,6.23
2018-08-07T14:44:37.595Z,5.67
2018-08-07T14:47:05.173Z,5.57
2018-08-07T14:49:32.855Z,5.40
2018-08-07T14:52:00.476Z,5.70
2018-08-07T14:54:28.137Z,6.40
2018-08-07T14:56:55.735Z,5.57
2018-08-07T14:59:23.421Z,6.23
2018-08-07T15:01:51.069Z,5.50
2018-08-07T15:04:19.437Z,5.77
2018-08-07T15:06:47.083Z,5.43
2018-08-07T15:09:14.661Z,5.30
2018-08-07T15:11:42.219Z,6.30
2018-08-07T15:14:10.387Z,5.33
2018-08-07T15:16:37.982Z,5.67
2018-08-07T15:19:05.563Z,6.30
2018-08-07T15:21:33.125Z,4.97
2018-08-07T15:24:00.885Z,5.43
2018-08-07T15:26:28.489Z,5.60
2018-08-07T15:28:56.211Z,5.13
2018-08-07T15:31:23.859Z,5.23
2018-08-07T15:33:51.577Z,5.67
2018-08-07T15:36:19.911Z,5.93
2018-08-07T15:38:47.542Z,6.07
2018-08-07T15:41:15.077Z,5.73
2018-08-07T15:43:42.699Z,6.20
2018-08-07T15:46:10.467Z,5.70
2018-08-07T15:48:38.058Z,6.10
2018-08-07T15:51:05.693Z,5.87
2018-08-07T15:53:33.288Z,5.20
2018-08-07T15:56:00.933Z,6.17
2018-08-07T15:58:28.526Z,5.90
2018-08-07T16:00:56.253Z,5.60
2018-08-07T16:03:23.884Z,5.80
2018-08-07T16:05:51.507Z,5.63
2018-08-07T16:08:19.786Z,5.27
2018-08-07T16:10:47.465Z,6.00
2018-08-07T16:13:15.082Z,5.97
2018-08-07T16:15:42.612Z,5.40
2018-08-07T16:18:10.289Z,5.47
2018-08-07T16:20:37.894Z,5.47
2018-08-07T16:23:05.704Z,6.30
2018-08-07T16:25:33.324Z,5.07
2018-08-07T16:28:00.906Z,6.47
2018-08-07T16:30:28.517Z,5.60
2018-08-07T16:32:56.072Z,5.30
2018-08-07T16:35:23.771Z,6.23
2018-08-07T16:37:51.440Z,6.37
2018-08-07T16:40:20.579Z,6.20
2018-08-07T16:42:49.537Z,5.57
2018-08-07T16:45:18.284Z,6.83
2018-08-07T16:47:45.791Z,6.73
2018-08-07T16:50:20.306Z,6.43
2018-08-07T16:52:48.573Z,5.83
2018-08-07T16:55:16.105Z,5.13
2018-08-07T16:57:43.741Z,5.40
2018-08-07T17:00:12.215Z,5.20
2018-08-07T17:02:40.049Z,4.50
2018-08-07T17:05:10.292Z,4.50
2018-08-07T17:07:38.213Z,4.70
2018-08-07T17:10:07.273Z,5.10
2018-08-07T17:12:34.871Z,3.63
2018-08-07T17:15:02.585Z,4.10
2018-08-07T17:17:30.141Z,4.70
2018-08-07T17:19:57.745Z,3.70
2018-08-07T17:22:25.383Z,3.70
2018-08-07T17:24:53.027Z,4.70
2018-08-07T17:27:21.241Z,4.83
2018-08-07T17:29:48.787Z,4.13
2018-08-07T17:32:17.790Z,4.57
2018-08-07T17:34:45.499Z,4.80
2018-08-07T17:37:13.119Z,4.70
2018-08-07T17:39:40.807Z,4.90
2018-08-07T17:42:08.479Z,4.80
2018-08-07T17:44:36.141Z,4.40
2018-08-07T17:47:04.488Z,4.63
2018-08-07T17:49:32.147Z,4.60
2018-08-07T17:51:59.817Z,4.20
2018-08-07T17:54:27.449Z,4.50
2018-08-07T17:56:55.158Z,4.00
2018-08-07T17:59:22.835Z,4.13
2018-08-07T18:01:51.249Z,4.70
2018-08-07T18:04:19.553Z,4.80
2018-08-07T18:06:47.251Z,4.80
2018-08-07T18:09:14.822Z,5.10
2018-08-07T18:11:42.542Z,4.10
2018-08-07T18:14:10.172Z,4.23
2018-08-07T18:16:37.671Z,5.03
2018-08-07T18:19:05.699Z,4.47
2018-08-07T18:21:33.435Z,4.13
2018-08-07T18:24:01.011Z,4.70
2018-08-07T18:27:15.627Z,4.63
2018-08-07T18:29:43.332Z,5.53
2018-08-07T18:32:11.006Z,4.40
2018-08-07T18:34:38.690Z,5.30
2018-08-07T18:37:06.360Z,4.93
2018-08-07T18:39:34.035Z,5.00
2018-08-07T18:42:01.783Z,5.07
2018-08-07T18:44:30.268Z,4.73
2018-08-07T18:46:57.938Z,4.60
2018-08-07T18:49:25.668Z,4.90
2018-08-07T18:51:54.889Z,5.13
2018-08-07T18:54:23.060Z,4.80
2018-08-07T18:56:51.906Z,4.70
2018-08-07T18:59:23.607Z,4.67
2018-08-07T19:01:52.220Z,5.17
2018-08-07T19:04:20.324Z,5.10
2018-08-07T19:06:48.038Z,5.13
2018-08-07T19:09:16.008Z,5.27
2018-08-07T19:11:47.011Z,5.27
2018-08-07T19:14:15.257Z,6.00
2018-08-07T19:16:43.074Z,5.83
2018-08-07T19:19:11.759Z,5.13
2018-08-07T19:21:39.469Z,5.20
2018-08-07T19:24:07.429Z,5.30
2018-08-07T19:26:36.466Z,5.93
2018-08-07T19:29:04.167Z,5.70
2018-08-07T19:31:32.073Z,5.57
2018-08-07T19:33:59.750Z,4.63
2018-08-07T19:36:27.483Z,4.03
2018-08-07T19:38:55.139Z,5.57
2018-08-07T19:41:24.151Z,5.80
2018-08-07T19:43:53.867Z,5.13
2018-08-07T19:46:26.958Z,6.30
2018-08-07T19:48:55.366Z,4.90
2018-08-07T19:51:23.400Z,5.30
2018-08-07T19:53:52.825Z,6.53
2018-08-07T19:56:21.069Z,5.50
2018-08-07T19:58:48.780Z,5.53
2018-08-07T20:01:16.870Z,5.83
2018-08-07T20:03:44.521Z,5.33
2018-08-07T20:06:12.275Z,6.77
2018-08-07T20:08:39.988Z,5.70
2018-08-07T20:11:07.835Z,6.10
2018-08-07T20:13:35.543Z,5.87
2018-08-07T20:16:03.440Z,5.63
2018-08-07T20:18:31.251Z,6.13
2018-08-07T20:20:59.067Z,5.73
2018-08-07T20:23:26.827Z,6.20
2018-08-07T20:25:55.640Z,5.03
2018-08-07T20:28:23.431Z,6.07
2018-08-07T20:30:51.202Z,5.60
2018-08-07T20:33:18.860Z,5.43
2018-08-07T20:35:47.005Z,4.83
2018-08-07T20:38:14.703Z,6.03
2018-08-07T20:40:42.352Z,5.60
2018-08-07T20:43:10.134Z,6.30
2018-08-07T20:45:37.792Z,5.70
2018-08-07T20:48:05.447Z,6.07
2018-08-07T20:50:33.202Z,6.70
2018-08-07T20:53:01.461Z,6.33
2018-08-07T20:55:29.096Z,6.30
2018-08-07T20:57:56.726Z,6.30
2018-08-07T21:00:27.689Z,6.00
2018-08-07T21:02:55.882Z,6.73
2018-08-07T21:05:23.970Z,6.00
2018-08-07T21:07:51.963Z,6.00
2018-08-07T21:10:24.442Z,6.80
2018-08-07T21:12:52.366Z,6.50
2018-08-07T21:15:20.402Z,6.10
2018-08-07T21:17:49.767Z,5.93
2018-08-07T21:20:20.513Z,6.80
2018-08-07T21:22:48.347Z,6.17
2018-08-07T21:25:22.253Z,7.23
2018-08-07T21:27:53.733Z,6.90
2018-08-07T21:30:26.046Z,6.20
2018-08-07T21:32:53.843Z,6.93
2018-08-07T21:35:21.695Z,6.00
2018-08-07T21:37:50.939Z,6.83
2018-08-07T21:40:20.600Z,6.53
2018-08-07T21:42:49.605Z,6.07
2018-08-07T21:45:17.822Z,6.33
2018-08-07T21:47:47.103Z,6.37
2018-08-07T21:50:16.869Z,7.30
2018-08-07T21:52:44.457Z,6.33
2018-08-07T21:55:14.312Z,6.93
2018-08-07T21:57:41.973Z,6.80
2018-08-07T22:00:44.755Z,7.20
2018-08-07T22:03:12.557Z,6.77
2018-08-07T22:05:40.215Z,7.13
2018-08-07T22:08:09.285Z,8.00
2018-08-07T22:10:36.993Z,7.60
2018-08-07T22:13:05.617Z,6.70
2018-08-07T22:15:33.213Z,6.77
2018-08-07T22:18:00.833Z,6.93
2018-08-07T22:20:28.481Z,7.43
2018-08-07T22:22:56.090Z,7.70
2018-08-07T22:25:23.704Z,8.07
2018-08-07T22:27:55.900Z,6.70
2018-08-07T22:30:23.569Z,7.43
2018-08-07T22:32:52.239Z,7.60
2018-08-07T22:35:20.009Z,9.30
2018-08-07T22:37:48.264Z,7.47
2018-08-07T22:40:16.252Z,7.70
2018-08-07T22:42:44.186Z,7.83
2018-08-07T22:45:14.778Z,7.47
2018-08-07T22:47:42.799Z,7.87
2018-08-07T22:50:13.667Z,7.93
2018-08-07T22:52:41.796Z,8.33
2018-08-07T22:55:12.932Z,9.40
2018-08-07T22:57:40.751Z,9.07
2018-08-07T23:00:17.644Z,9.10
2018-08-07T23:02:45.123Z,8.23
2018-08-07T23:05:15.232Z,8.07
2018-08-07T23:07:43.413Z,9.07
2018-08-07T23:10:15.375Z,7.50
2018-08-07T23:12:43.304Z,7.47
2018-08-07T23:15:13.178Z,9.00
2018-08-07T23:17:41.208Z,9.10
2018-08-07T23:20:09.894Z,7.50
2018-08-07T23:22:38.845Z,8.23
2018-08-07T23:25:06.997Z,8.70
2018-08-07T23:27:35.305Z,8.67
2018-08-07T23:30:04.208Z,8.30
2018-08-07T23:32:32.449Z,8.40
2018-08-07T23:35:00.198Z,8.40
2018-08-07T23:37:27.759Z,8.20
2018-08-07T23:39:55.645Z,7.70
2018-08-07T23:42:23.283Z,8.87
2018-08-07T23:44:53.035Z,8.90
2018-08-07T23:47:22.362Z,8.70
2018-08-07T23:49:49.938Z,8.40
2018-08-07T23:52:17.509Z,8.50
2018-08-07T23:54:45.417Z,9.00
2018-08-07T23:57:13.007Z,8.80
2018-08-07T23:59:40.544Z,9.63
